PWSweather.com
Personal Weather Stations
Station Observations
WESTON01
WestonSuperMareGB BS22 8RT

WestonSuperMareGB BS22 8RT

Lat: 51.351508, Lon: -2.933373

Elevation: 15

Station Type: Fine Offset WH1080

http://www.westonweather.co.uk

High Low Average
Temperature 61.3°F16.3°C 51.5°F10.8°C 56.0°F13.3°C
Dew Point 58.0°F14.4°C 46.4°F8.0°C 51.9°F11.1°C
Winds 7.5 mph 12.1 kmh Calm Calm 2.0 mph E3.2 kmh E
Wind Gusts 13.4 mph21.6 kmh -- 4.0 mph6.4 kmh
Humidity 95% 73% 86%
Pressure 30.24 in1024.0 mb 29.94 in1013.9 mb -
Precipitation 0.00 in0.0 mm - -
Hour Temp Dew Point Humidity Winds Wind Gusts Pressure Precip Precip Rate Daily Precip Total
12:00 AM 52.6°F11.4°C 50.1°F10.1°C 91% 1.3 mph SW2.1 kmh SW 3.6 mph5.8 kmh 29.97 in1014.9 mb 0.00 in0.0 mm 0.00 in0.0 mm 0.00 in0.0 mm
12:05 AM 52.6°F11.4°C 50.1°F10.1°C 91% 1.4 mph SW2.3 kmh SW 3.6 mph5.8 kmh 29.94 in1013.9 mb 0.00 in0.0 mm 0.00 in0.0 mm 0.00 in0.0 mm
12:10 AM 52.6°F11.4°C 50.1°F10.1°C 91% 1.6 mph SW2.6 kmh SW 3.9 mph6.3 kmh 29.94 in1013.9 mb 0.00 in0.0 mm 0.00 in0.0 mm 0.00 in0.0 mm
12:15 AM 52.6°F11.4°C 50.1°F10.1°C 91% 1.5 mph SW2.4 kmh SW 3.9 mph6.3 kmh 29.94 in1013.9 mb 0.00 in0.0 mm 0.00 in0.0 mm 0.00 in0.0 mm
12:20 AM 52.6°F11.4°C 50.1°F10.1°C 91% 0.6 mph SW1.0 kmh SW 2.1 mph3.4 kmh 29.94 in1013.9 mb 0.00 in0.0 mm 0.00 in0.0 mm 0.00 in0.0 mm
12:25 AM 52.6°F11.4°C 50.1°F10.1°C 91% 0.7 mph SW1.1 kmh SW 3.6 mph5.8 kmh 29.94 in1013.9 mb 0.00 in0.0 mm 0.00 in0.0 mm 0.00 in0.0 mm
12:30 AM 52.6°F11.4°C 50.1°F10.1°C 91% 1.5 mph SW2.4 kmh SW 5.4 mph8.7 kmh 29.94 in1013.9 mb 0.00 in0.0 mm 0.00 in0.0 mm 0.00 in0.0 mm
12:35 AM 52.6°F11.4°C 50.1°F10.1°C 91% 1.7 mph SSW2.7 kmh SSW 5.4 mph8.7 kmh 29.94 in1013.9 mb 0.00 in0.0 mm 0.00 in0.0 mm 0.00 in0.0 mm
12:40 AM 52.6°F11.4°C 50.1°F10.1°C 91% 2.5 mph S4.0 kmh S 5.4 mph8.7 kmh 29.94 in1013.9 mb 0.00 in0.0 mm 0.00 in0.0 mm 0.00 in0.0 mm
12:45 AM 52.6°F11.4°C 50.1°F10.1°C 91% 2.5 mph S4.0 kmh S 5.1 mph8.2 kmh 29.94 in1013.9 mb 0.00 in0.0 mm 0.00 in0.0 mm 0.00 in0.0 mm
12:50 AM 52.8°F11.6°C 50.2°F10.1°C 91% 2.9 mph S4.7 kmh S 5.4 mph8.7 kmh 29.94 in1013.9 mb 0.00 in0.0 mm 0.00 in0.0 mm 0.00 in0.0 mm
12:55 AM 52.8°F11.6°C 50.2°F10.1°C 91% 2.8 mph SSW4.5 kmh SSW 5.4 mph8.7 kmh 29.94 in1013.9 mb 0.00 in0.0 mm 0.00 in0.0 mm 0.00 in0.0 mm
01:00 AM 52.8°F11.6°C 50.5°F10.3°C 92% 1.6 mph S2.6 kmh S 4.5 mph7.2 kmh 29.94 in1013.9 mb 0.00 in0.0 mm 0.00 in0.0 mm 0.00 in0.0 mm
01:05 AM 52.8°F11.6°C 50.5°F10.3°C 92% 0.7 mph S1.1 kmh S 3.6 mph5.8 kmh 29.94 in1013.9 mb 0.00 in0.0 mm 0.00 in0.0 mm 0.00 in0.0 mm
01:10 AM 52.8°F11.6°C 50.5°F10.3°C 92% 1.0 mph SW1.6 kmh SW 3.9 mph6.3 kmh 29.94 in1013.9 mb 0.00 in0.0 mm 0.00 in0.0 mm 0.00 in0.0 mm
01:15 AM 52.8°F11.6°C 50.5°F10.3°C 92% 1.7 mph SW2.7 kmh SW 3.9 mph6.3 kmh 29.94 in1013.9 mb 0.00 in0.0 mm 0.00 in0.0 mm 0.00 in0.0 mm
01:20 AM 52.8°F11.6°C 50.5°F10.3°C 92% 2.0 mph SSW3.2 kmh SSW 4.8 mph7.7 kmh 29.94 in1013.9 mb 0.00 in0.0 mm 0.00 in0.0 mm 0.00 in0.0 mm
01:25 AM 53.0°F11.7°C 50.7°F10.4°C 92% 1.9 mph SSW3.1 kmh SSW 4.8 mph7.7 kmh 29.94 in1013.9 mb 0.00 in0.0 mm 0.00 in0.0 mm 0.00 in0.0 mm
01:30 AM 53.0°F11.7°C 50.7°F10.4°C 92% 1.9 mph SW3.1 kmh SW 3.9 mph6.3 kmh 29.94 in1013.9 mb 0.00 in0.0 mm 0.00 in0.0 mm 0.00 in0.0 mm
01:35 AM 53.0°F11.7°C 50.7°F10.4°C 92% 1.6 mph SW2.6 kmh SW 5.1 mph8.2 kmh 29.94 in1013.9 mb 0.00 in0.0 mm 0.00 in0.0 mm 0.00 in0.0 mm
01:40 AM 53.0°F11.7°C 50.7°F10.4°C 92% 1.2 mph SW1.9 kmh SW 5.1 mph8.2 kmh 29.94 in1013.9 mb 0.00 in0.0 mm 0.00 in0.0 mm 0.00 in0.0 mm
01:45 AM 53.2°F11.8°C 50.9°F10.5°C 92% 1.0 mph WSW1.6 kmh WSW 5.1 mph8.2 kmh 29.94 in1013.9 mb 0.00 in0.0 mm 0.00 in0.0 mm 0.00 in0.0 mm
01:50 AM 53.2°F11.8°C 50.9°F10.5°C 92% 0.5 mph WSW0.8 kmh WSW 2.7 mph4.3 kmh 29.94 in1013.9 mb 0.00 in0.0 mm 0.00 in0.0 mm 0.00 in0.0 mm
01:55 AM 53.2°F11.8°C 50.9°F10.5°C 92% 0.5 mph SW0.8 kmh SW 2.1 mph3.4 kmh 29.94 in1013.9 mb 0.00 in0.0 mm 0.00 in0.0 mm 0.00 in0.0 mm
02:00 AM 53.2°F11.8°C 50.9°F10.5°C 92% 1.6 mph SSW2.6 kmh SSW 3.9 mph6.3 kmh 29.94 in1013.9 mb 0.00 in0.0 mm 0.00 in0.0 mm 0.00 in0.0 mm
02:05 AM 53.3°F11.8°C 51.1°F10.6°C 92% 1.2 mph SSW1.9 kmh SSW 3.9 mph6.3 kmh 29.94 in1013.9 mb 0.00 in0.0 mm 0.00 in0.0 mm 0.00 in0.0 mm
02:10 AM 53.3°F11.8°C 51.1°F10.6°C 92% 0.4 mph SW0.6 kmh SW 1.5 mph2.4 kmh 29.94 in1013.9 mb 0.00 in0.0 mm 0.00 in0.0 mm 0.00 in0.0 mm
02:15 AM 53.3°F11.8°C 51.4°F10.8°C 93% 0.6 mph SW1.0 kmh SW 2.1 mph3.4 kmh 29.94 in1013.9 mb 0.00 in0.0 mm 0.00 in0.0 mm 0.00 in0.0 mm
02:20 AM 53.3°F11.8°C 51.4°F10.8°C 93% 0.6 mph SW1.0 kmh SW 2.1 mph3.4 kmh 29.94 in1013.9 mb 0.00 in0.0 mm 0.00 in0.0 mm 0.00 in0.0 mm
02:25 AM 53.3°F11.8°C 51.4°F10.8°C 93% 1.0 mph WSW1.6 kmh WSW 4.2 mph6.8 kmh 29.94 in1013.9 mb 0.00 in0.0 mm 0.00 in0.0 mm 0.00 in0.0 mm
02:30 AM 53.3°F11.8°C 51.4°F10.8°C 93% 1.5 mph SW2.4 kmh SW 4.5 mph7.2 kmh 29.94 in1013.9 mb 0.00 in0.0 mm 0.00 in0.0 mm 0.00 in0.0 mm
02:35 AM 53.3°F11.8°C 51.4°F10.8°C 93% 2.6 mph SW4.2 kmh SW 4.5 mph7.2 kmh 29.94 in1013.9 mb 0.00 in0.0 mm 0.00 in0.0 mm 0.00 in0.0 mm
02:40 AM 53.3°F11.8°C 51.4°F10.8°C 93% 3.3 mph WSW5.3 kmh WSW 5.7 mph9.2 kmh 29.94 in1013.9 mb 0.00 in0.0 mm 0.00 in0.0 mm 0.00 in0.0 mm
02:45 AM 53.3°F11.8°C 51.4°F10.8°C 93% 2.3 mph WSW3.7 kmh WSW 5.7 mph9.2 kmh 29.94 in1013.9 mb 0.00 in0.0 mm 0.00 in0.0 mm 0.00 in0.0 mm
02:50 AM 53.3°F11.8°C 51.4°F10.8°C 93% 2.6 mph W4.2 kmh W 4.8 mph7.7 kmh 29.94 in1013.9 mb 0.00 in0.0 mm 0.00 in0.0 mm 0.00 in0.0 mm
02:55 AM 53.3°F11.8°C 51.4°F10.8°C 93% 3.5 mph W5.6 kmh W 4.8 mph7.7 kmh 29.94 in1013.9 mb 0.00 in0.0 mm 0.00 in0.0 mm 0.00 in0.0 mm
03:00 AM 53.3°F11.8°C 51.4°F10.8°C 93% 2.1 mph W3.4 kmh W 4.5 mph7.2 kmh 29.94 in1013.9 mb 0.00 in0.0 mm 0.00 in0.0 mm 0.00 in0.0 mm
03:05 AM 53.3°F11.8°C 51.4°F10.8°C 93% 0.9 mph WSW1.4 kmh WSW 2.1 mph3.4 kmh 29.94 in1013.9 mb 0.00 in0.0 mm 0.00 in0.0 mm 0.00 in0.0 mm
03:10 AM 53.3°F11.8°C 51.4°F10.8°C 93% 1.3 mph WSW2.1 kmh WSW 2.7 mph4.3 kmh 29.94 in1013.9 mb 0.00 in0.0 mm 0.00 in0.0 mm 0.00 in0.0 mm
03:15 AM 53.3°F11.8°C 51.4°F10.8°C 93% 2.6 mph WSW4.2 kmh WSW 4.5 mph7.2 kmh 29.94 in1013.9 mb 0.00 in0.0 mm 0.00 in0.0 mm 0.00 in0.0 mm
03:20 AM 53.3°F11.8°C 51.6°F10.9°C 94% 3.2 mph WSW5.1 kmh WSW 5.4 mph8.7 kmh 29.94 in1013.9 mb 0.00 in0.0 mm 0.00 in0.0 mm 0.00 in0.0 mm
03:25 AM 53.3°F11.8°C 51.6°F10.9°C 94% 3.0 mph WSW4.8 kmh WSW 5.4 mph8.7 kmh 29.94 in1013.9 mb 0.00 in0.0 mm 0.00 in0.0 mm 0.00 in0.0 mm
03:30 AM 53.5°F11.9°C 51.8°F11.0°C 94% 3.0 mph WSW4.8 kmh WSW 5.4 mph8.7 kmh 29.94 in1013.9 mb 0.00 in0.0 mm 0.00 in0.0 mm 0.00 in0.0 mm
03:35 AM 53.5°F11.9°C 51.8°F11.0°C 94% 1.7 mph WSW2.7 kmh WSW 4.2 mph6.8 kmh 29.94 in1013.9 mb 0.00 in0.0 mm 0.00 in0.0 mm 0.00 in0.0 mm
03:40 AM 53.5°F11.9°C 51.8°F11.0°C 94% 0.7 mph SW1.1 kmh SW 3.0 mph4.8 kmh 29.94 in1013.9 mb 0.00 in0.0 mm 0.00 in0.0 mm 0.00 in0.0 mm
03:45 AM 53.5°F11.9°C 51.8°F11.0°C 94% 0.5 mph WSW0.8 kmh WSW 3.0 mph4.8 kmh 29.94 in1013.9 mb 0.00 in0.0 mm 0.00 in0.0 mm 0.00 in0.0 mm
03:50 AM 53.5°F11.9°C 51.8°F11.0°C 94% 0.3 mph WSW0.5 kmh WSW 1.5 mph2.4 kmh 29.94 in1013.9 mb 0.00 in0.0 mm 0.00 in0.0 mm 0.00 in0.0 mm
03:55 AM 53.5°F11.9°C 51.8°F11.0°C 94% 0.3 mph WSW0.5 kmh WSW 1.5 mph2.4 kmh 29.94 in1013.9 mb 0.00 in0.0 mm 0.00 in0.0 mm 0.00 in0.0 mm
04:00 AM 53.5°F11.9°C 51.8°F11.0°C 94% 0.1 mph WSW0.2 kmh WSW 1.2 mph1.9 kmh 29.94 in1013.9 mb 0.00 in0.0 mm 0.00 in0.0 mm 0.00 in0.0 mm
04:05 AM 53.5°F11.9°C 51.8°F11.0°C 94% Calm Calm -- 29.94 in1013.9 mb 0.00 in0.0 mm 0.00 in0.0 mm 0.00 in0.0 mm
04:10 AM 53.5°F11.9°C 51.8°F11.0°C 94% Calm Calm -- 29.94 in1013.9 mb 0.00 in0.0 mm 0.00 in0.0 mm 0.00 in0.0 mm
04:15 AM 53.5°F11.9°C 51.8°F11.0°C 94% 0.1 mph SW0.2 kmh SW 1.8 mph2.9 kmh 29.94 in1013.9 mb 0.00 in0.0 mm 0.00 in0.0 mm 0.00 in0.0 mm
04:20 AM 53.5°F11.9°C 51.8°F11.0°C 94% 0.1 mph SW0.2 kmh SW 1.8 mph2.9 kmh 29.94 in1013.9 mb 0.00 in0.0 mm 0.00 in0.0 mm 0.00 in0.0 mm
04:25 AM 53.7°F12.1°C 52.0°F11.1°C 94% Calm Calm -- 29.94 in1013.9 mb 0.00 in0.0 mm 0.00 in0.0 mm 0.00 in0.0 mm
04:35 AM 53.7°F12.1°C 52.0°F11.1°C 94% Calm Calm -- 29.94 in1013.9 mb 0.00 in0.0 mm 0.00 in0.0 mm 0.00 in0.0 mm
04:40 AM 53.5°F11.9°C 51.8°F11.0°C 94% Calm Calm -- 29.94 in1013.9 mb 0.00 in0.0 mm 0.00 in0.0 mm 0.00 in0.0 mm
04:45 AM 53.5°F11.9°C 51.8°F11.0°C 94% Calm Calm -- 29.94 in1013.9 mb 0.00 in0.0 mm 0.00 in0.0 mm 0.00 in0.0 mm
04:50 AM 53.3°F11.8°C 51.6°F10.9°C 94% Calm Calm -- 29.94 in1013.9 mb 0.00 in0.0 mm 0.00 in0.0 mm 0.00 in0.0 mm
04:55 AM 53.2°F11.8°C 51.5°F10.8°C 94% Calm Calm -- 29.94 in1013.9 mb 0.00 in0.0 mm 0.00 in0.0 mm 0.00 in0.0 mm
05:00 AM 53.0°F11.7°C 51.3°F10.7°C 94% Calm Calm -- 29.94 in1013.9 mb 0.00 in0.0 mm 0.00 in0.0 mm 0.00 in0.0 mm
05:05 AM 52.6°F11.4°C 50.9°F10.5°C 94% Calm Calm -- 29.94 in1013.9 mb 0.00 in0.0 mm 0.00 in0.0 mm 0.00 in0.0 mm
05:10 AM 52.6°F11.4°C 50.9°F10.5°C 94% Calm Calm -- 29.94 in1013.9 mb 0.00 in0.0 mm 0.00 in0.0 mm 0.00 in0.0 mm
05:15 AM 52.4°F11.3°C 50.8°F10.4°C 94% Calm Calm -- 29.94 in1013.9 mb 0.00 in0.0 mm 0.00 in0.0 mm 0.00 in0.0 mm
05:20 AM 52.4°F11.3°C 50.8°F10.4°C 94% Calm Calm -- 29.94 in1013.9 mb 0.00 in0.0 mm 0.00 in0.0 mm 0.00 in0.0 mm
05:25 AM 52.4°F11.3°C 50.8°F10.4°C 94% Calm Calm -- 29.94 in1013.9 mb 0.00 in0.0 mm 0.00 in0.0 mm 0.00 in0.0 mm
05:30 AM 52.4°F11.3°C 50.8°F10.4°C 94% Calm Calm -- 29.94 in1013.9 mb 0.00 in0.0 mm 0.00 in0.0 mm 0.00 in0.0 mm
05:35 AM 52.6°F11.4°C 50.9°F10.5°C 94% Calm Calm -- 29.97 in1014.9 mb 0.00 in0.0 mm 0.00 in0.0 mm 0.00 in0.0 mm
05:40 AM 52.6°F11.4°C 50.9°F10.5°C 94% Calm Calm -- 29.97 in1014.9 mb 0.00 in0.0 mm 0.00 in0.0 mm 0.00 in0.0 mm
05:45 AM 52.6°F11.4°C 50.9°F10.5°C 94% Calm Calm -- 29.97 in1014.9 mb 0.00 in0.0 mm 0.00 in0.0 mm 0.00 in0.0 mm
05:50 AM 52.8°F11.6°C 51.1°F10.6°C 94% Calm Calm -- 29.97 in1014.9 mb 0.00 in0.0 mm 0.00 in0.0 mm 0.00 in0.0 mm
05:55 AM 52.8°F11.6°C 51.1°F10.6°C 94% Calm Calm -- 29.97 in1014.9 mb 0.00 in0.0 mm 0.00 in0.0 mm 0.00 in0.0 mm
06:00 AM 53.0°F11.7°C 51.3°F10.7°C 94% Calm Calm -- 29.97 in1014.9 mb 0.00 in0.0 mm 0.00 in0.0 mm 0.00 in0.0 mm
06:05 AM 53.2°F11.8°C 51.5°F10.8°C 94% Calm Calm -- 29.97 in1014.9 mb 0.00 in0.0 mm 0.00 in0.0 mm 0.00 in0.0 mm
06:10 AM 53.2°F11.8°C 51.8°F11.0°C 95% Calm Calm -- 29.97 in1014.9 mb 0.00 in0.0 mm 0.00 in0.0 mm 0.00 in0.0 mm
06:15 AM 53.3°F11.8°C 51.9°F11.1°C 95% Calm Calm -- 29.97 in1014.9 mb 0.00 in0.0 mm 0.00 in0.0 mm 0.00 in0.0 mm
06:20 AM 53.3°F11.8°C 51.9°F11.1°C 95% Calm Calm -- 29.97 in1014.9 mb 0.00 in0.0 mm 0.00 in0.0 mm 0.00 in0.0 mm
06:25 AM 53.3°F11.8°C 51.9°F11.1°C 95% Calm Calm -- 29.97 in1014.9 mb 0.00 in0.0 mm 0.00 in0.0 mm 0.00 in0.0 mm
06:30 AM 53.3°F11.8°C 51.9°F11.1°C 95% Calm Calm -- 29.97 in1014.9 mb 0.00 in0.0 mm 0.00 in0.0 mm 0.00 in0.0 mm
06:35 AM 53.5°F11.9°C 52.1°F11.2°C 95% Calm Calm -- 29.97 in1014.9 mb 0.00 in0.0 mm 0.00 in0.0 mm 0.00 in0.0 mm
06:40 AM 53.5°F11.9°C 52.1°F11.2°C 95% Calm Calm -- 29.97 in1014.9 mb 0.00 in0.0 mm 0.00 in0.0 mm 0.00 in0.0 mm
06:45 AM 53.5°F11.9°C 52.1°F11.2°C 95% Calm Calm -- 29.97 in1014.9 mb 0.00 in0.0 mm 0.00 in0.0 mm 0.00 in0.0 mm
06:50 AM 53.5°F11.9°C 52.1°F11.2°C 95% Calm Calm -- 29.97 in1014.9 mb 0.00 in0.0 mm 0.00 in0.0 mm 0.00 in0.0 mm
06:55 AM 53.5°F11.9°C 52.1°F11.2°C 95% Calm Calm -- 29.97 in1014.9 mb 0.00 in0.0 mm 0.00 in0.0 mm 0.00 in0.0 mm
07:00 AM 53.5°F11.9°C 52.1°F11.2°C 95% Calm Calm -- 29.97 in1014.9 mb 0.00 in0.0 mm 0.00 in0.0 mm 0.00 in0.0 mm
07:05 AM 53.5°F11.9°C 52.1°F11.2°C 95% Calm Calm -- 30.00 in1015.9 mb 0.00 in0.0 mm 0.00 in0.0 mm 0.00 in0.0 mm
07:10 AM 53.3°F11.8°C 51.9°F11.1°C 95% Calm Calm -- 30.00 in1015.9 mb 0.00 in0.0 mm 0.00 in0.0 mm 0.00 in0.0 mm
07:15 AM 53.3°F11.8°C 51.9°F11.1°C 95% Calm Calm -- 30.00 in1015.9 mb 0.00 in0.0 mm 0.00 in0.0 mm 0.00 in0.0 mm
07:20 AM 53.3°F11.8°C 51.9°F11.1°C 95% Calm Calm -- 30.00 in1015.9 mb 0.00 in0.0 mm 0.00 in0.0 mm 0.00 in0.0 mm
07:25 AM 53.5°F11.9°C 52.1°F11.2°C 95% Calm Calm -- 30.00 in1015.9 mb 0.00 in0.0 mm 0.00 in0.0 mm 0.00 in0.0 mm
07:30 AM 53.5°F11.9°C 52.1°F11.2°C 95% Calm Calm -- 30.00 in1015.9 mb 0.00 in0.0 mm 0.00 in0.0 mm 0.00 in0.0 mm
07:35 AM 53.7°F12.1°C 52.3°F11.3°C 95% Calm Calm -- 30.00 in1015.9 mb 0.00 in0.0 mm 0.00 in0.0 mm 0.00 in0.0 mm
07:40 AM 53.7°F12.1°C 52.3°F11.3°C 95% Calm Calm -- 30.00 in1015.9 mb 0.00 in0.0 mm 0.00 in0.0 mm 0.00 in0.0 mm
07:45 AM 53.9°F12.2°C 52.5°F11.4°C 95% Calm Calm -- 30.00 in1015.9 mb 0.00 in0.0 mm 0.00 in0.0 mm 0.00 in0.0 mm
07:50 AM 53.9°F12.2°C 52.5°F11.4°C 95% Calm Calm -- 30.00 in1015.9 mb 0.00 in0.0 mm 0.00 in0.0 mm 0.00 in0.0 mm
07:55 AM 54.0°F12.2°C 52.7°F11.5°C 95% Calm Calm -- 30.00 in1015.9 mb 0.00 in0.0 mm 0.00 in0.0 mm 0.00 in0.0 mm
08:00 AM 54.0°F12.2°C 52.7°F11.5°C 95% Calm Calm -- 30.00 in1015.9 mb 0.00 in0.0 mm 0.00 in0.0 mm 0.00 in0.0 mm
08:05 AM 54.2°F12.3°C 52.8°F11.6°C 95% Calm Calm -- 30.00 in1015.9 mb 0.00 in0.0 mm 0.00 in0.0 mm 0.00 in0.0 mm
08:10 AM 54.2°F12.3°C 52.8°F11.6°C 95% Calm Calm -- 30.00 in1015.9 mb 0.00 in0.0 mm 0.00 in0.0 mm 0.00 in0.0 mm
08:15 AM 54.4°F12.4°C 53.0°F11.7°C 95% Calm Calm -- 30.00 in1015.9 mb 0.00 in0.0 mm 0.00 in0.0 mm 0.00 in0.0 mm
08:20 AM 54.4°F12.4°C 53.0°F11.7°C 95% Calm Calm -- 30.00 in1015.9 mb 0.00 in0.0 mm 0.00 in0.0 mm 0.00 in0.0 mm
08:25 AM 54.6°F12.6°C 53.2°F11.8°C 95% Calm Calm -- 30.00 in1015.9 mb 0.00 in0.0 mm 0.00 in0.0 mm 0.00 in0.0 mm
08:30 AM 54.8°F12.7°C 53.4°F11.9°C 95% Calm Calm -- 30.00 in1015.9 mb 0.00 in0.0 mm 0.00 in0.0 mm 0.00 in0.0 mm
08:35 AM 55.1°F12.8°C 53.7°F12.1°C 95% Calm Calm -- 30.00 in1015.9 mb 0.00 in0.0 mm 0.00 in0.0 mm 0.00 in0.0 mm
08:40 AM 55.3°F12.9°C 53.9°F12.2°C 95% Calm Calm -- 30.00 in1015.9 mb 0.00 in0.0 mm 0.00 in0.0 mm 0.00 in0.0 mm
08:45 AM 55.3°F12.9°C 53.9°F12.2°C 95% Calm Calm -- 30.00 in1015.9 mb 0.00 in0.0 mm 0.00 in0.0 mm 0.00 in0.0 mm
08:50 AM 55.5°F13.1°C 54.1°F12.3°C 95% Calm Calm -- 30.00 in1015.9 mb 0.00 in0.0 mm 0.00 in0.0 mm 0.00 in0.0 mm
08:55 AM 55.7°F13.2°C 54.3°F12.4°C 95% Calm Calm -- 30.00 in1015.9 mb 0.00 in0.0 mm 0.00 in0.0 mm 0.00 in0.0 mm
09:00 AM 55.8°F13.2°C 54.4°F12.4°C 95% Calm Calm -- 30.00 in1015.9 mb 0.00 in0.0 mm 0.00 in0.0 mm 0.00 in0.0 mm
09:05 AM 55.8°F13.2°C 54.4°F12.4°C 95% Calm Calm -- 30.00 in1015.9 mb 0.00 in0.0 mm 0.00 in0.0 mm 0.00 in0.0 mm
09:10 AM 56.0°F13.3°C 54.6°F12.6°C 95% Calm Calm -- 30.00 in1015.9 mb 0.00 in0.0 mm 0.00 in0.0 mm 0.00 in0.0 mm
09:15 AM 56.0°F13.3°C 54.6°F12.6°C 95% Calm Calm -- 30.00 in1015.9 mb 0.00 in0.0 mm 0.00 in0.0 mm 0.00 in0.0 mm
09:20 AM 56.0°F13.3°C 54.6°F12.6°C 95% Calm Calm -- 30.03 in1016.9 mb 0.00 in0.0 mm 0.00 in0.0 mm 0.00 in0.0 mm
09:25 AM 56.4°F13.6°C 55.0°F12.8°C 95% Calm Calm -- 30.03 in1016.9 mb 0.00 in0.0 mm 0.00 in0.0 mm 0.00 in0.0 mm
09:30 AM 56.4°F13.6°C 55.0°F12.8°C 95% 0.5 mph NW0.8 kmh NW 2.1 mph3.4 kmh 30.03 in1016.9 mb 0.00 in0.0 mm 0.00 in0.0 mm 0.00 in0.0 mm
09:35 AM 56.6°F13.7°C 55.2°F12.9°C 95% 1.0 mph NW1.6 kmh NW 2.1 mph3.4 kmh 30.03 in1016.9 mb 0.00 in0.0 mm 0.00 in0.0 mm 0.00 in0.0 mm
09:40 AM 56.6°F13.7°C 55.2°F12.9°C 95% 0.4 mph NW0.6 kmh NW 1.8 mph2.9 kmh 30.03 in1016.9 mb 0.00 in0.0 mm 0.00 in0.0 mm 0.00 in0.0 mm
09:45 AM 56.8°F13.8°C 55.3°F12.9°C 95% Calm Calm -- 30.03 in1016.9 mb 0.00 in0.0 mm 0.00 in0.0 mm 0.00 in0.0 mm
09:50 AM 57.1°F13.9°C 55.7°F13.2°C 95% Calm Calm -- 30.03 in1016.9 mb 0.00 in0.0 mm 0.00 in0.0 mm 0.00 in0.0 mm
09:55 AM 57.3°F14.1°C 55.9°F13.3°C 95% Calm Calm -- 30.03 in1016.9 mb 0.00 in0.0 mm 0.00 in0.0 mm 0.00 in0.0 mm
10:00 AM 58.0°F14.4°C 56.6°F13.7°C 95% 0.5 mph N0.8 kmh N 2.7 mph4.3 kmh 30.03 in1016.9 mb 0.00 in0.0 mm 0.00 in0.0 mm 0.00 in0.0 mm
10:05 AM 58.7°F14.8°C 57.3°F14.1°C 95% 1.9 mph NNW3.1 kmh NNW 3.9 mph6.3 kmh 30.03 in1016.9 mb 0.00 in0.0 mm 0.00 in0.0 mm 0.00 in0.0 mm
10:10 AM 59.1°F15.1°C 57.7°F14.3°C 95% 2.4 mph NNW3.9 kmh NNW 3.9 mph6.3 kmh 30.03 in1016.9 mb 0.00 in0.0 mm 0.00 in0.0 mm 0.00 in0.0 mm
10:15 AM 59.5°F15.3°C 58.0°F14.4°C 95% 2.5 mph NNW4.0 kmh NNW 4.8 mph7.7 kmh 30.03 in1016.9 mb 0.00 in0.0 mm 0.00 in0.0 mm 0.00 in0.0 mm
10:20 AM 59.6°F15.3°C 57.9°F14.4°C 94% 2.3 mph N3.7 kmh N 4.8 mph7.7 kmh 30.03 in1016.9 mb 0.00 in0.0 mm 0.00 in0.0 mm 0.00 in0.0 mm
10:25 AM 59.5°F15.3°C 57.7°F14.3°C 94% 2.5 mph N4.0 kmh N 4.8 mph7.7 kmh 30.03 in1016.9 mb 0.00 in0.0 mm 0.00 in0.0 mm 0.00 in0.0 mm
10:30 AM 59.6°F15.3°C 57.6°F14.2°C 93% 2.6 mph N4.2 kmh N 5.1 mph8.2 kmh 30.03 in1016.9 mb 0.00 in0.0 mm 0.00 in0.0 mm 0.00 in0.0 mm
10:35 AM 59.6°F15.3°C 57.6°F14.2°C 93% 2.5 mph N4.0 kmh N 5.1 mph8.2 kmh 30.03 in1016.9 mb 0.00 in0.0 mm 0.00 in0.0 mm 0.00 in0.0 mm
10:40 AM 59.8°F15.4°C 57.8°F14.3°C 93% 2.7 mph N4.3 kmh N 4.8 mph7.7 kmh 30.03 in1016.9 mb 0.00 in0.0 mm 0.00 in0.0 mm 0.00 in0.0 mm
10:45 AM 59.8°F15.4°C 57.5°F14.2°C 92% 2.8 mph N4.5 kmh N 5.1 mph8.2 kmh 30.03 in1016.9 mb 0.00 in0.0 mm 0.00 in0.0 mm 0.00 in0.0 mm
10:50 AM 59.8°F15.4°C 57.5°F14.2°C 92% 2.3 mph NE3.7 kmh NE 5.1 mph8.2 kmh 30.03 in1016.9 mb 0.00 in0.0 mm 0.00 in0.0 mm 0.00 in0.0 mm
10:55 AM 59.8°F15.4°C 57.5°F14.2°C 92% 2.8 mph NNE4.5 kmh NNE 5.4 mph8.7 kmh 30.03 in1016.9 mb 0.00 in0.0 mm 0.00 in0.0 mm 0.00 in0.0 mm
11:00 AM 59.8°F15.4°C 57.2°F14.0°C 91% 3.2 mph N5.1 kmh N 5.4 mph8.7 kmh 30.03 in1016.9 mb 0.00 in0.0 mm 0.00 in0.0 mm 0.00 in0.0 mm
11:05 AM 59.8°F15.4°C 57.2°F14.0°C 91% 2.3 mph N3.7 kmh N 5.1 mph8.2 kmh 30.03 in1016.9 mb 0.00 in0.0 mm 0.00 in0.0 mm 0.00 in0.0 mm
11:10 AM 59.8°F15.4°C 57.2°F14.0°C 91% 1.2 mph N1.9 kmh N 3.0 mph4.8 kmh 30.03 in1016.9 mb 0.00 in0.0 mm 0.00 in0.0 mm 0.00 in0.0 mm
11:15 AM 59.8°F15.4°C 56.9°F13.8°C 90% 1.5 mph NNE2.4 kmh NNE 3.9 mph6.3 kmh 30.03 in1016.9 mb 0.00 in0.0 mm 0.00 in0.0 mm 0.00 in0.0 mm
11:20 AM 59.8°F15.4°C 56.9°F13.8°C 90% 2.2 mph N3.5 kmh N 3.9 mph6.3 kmh 30.03 in1016.9 mb 0.00 in0.0 mm 0.00 in0.0 mm 0.00 in0.0 mm
11:25 AM 59.8°F15.4°C 56.9°F13.8°C 90% 2.7 mph NNW4.3 kmh NNW 3.9 mph6.3 kmh 30.03 in1016.9 mb 0.00 in0.0 mm 0.00 in0.0 mm 0.00 in0.0 mm
11:30 AM 59.8°F15.4°C 56.9°F13.8°C 90% 3.2 mph NNW5.1 kmh NNW 4.8 mph7.7 kmh 30.03 in1016.9 mb 0.00 in0.0 mm 0.00 in0.0 mm 0.00 in0.0 mm
11:35 AM 59.8°F15.4°C 56.6°F13.7°C 89% 3.6 mph NNW5.8 kmh NNW 4.8 mph7.7 kmh 30.03 in1016.9 mb 0.00 in0.0 mm 0.00 in0.0 mm 0.00 in0.0 mm
11:40 AM 60.0°F15.6°C 56.7°F13.7°C 89% 3.9 mph N6.3 kmh N 5.7 mph9.2 kmh 30.03 in1016.9 mb 0.00 in0.0 mm 0.00 in0.0 mm 0.00 in0.0 mm
11:45 AM 60.0°F15.6°C 56.4°F13.6°C 88% 3.5 mph N5.6 kmh N 5.7 mph9.2 kmh 30.03 in1016.9 mb 0.00 in0.0 mm 0.00 in0.0 mm 0.00 in0.0 mm
11:50 AM 60.2°F15.7°C 56.6°F13.7°C 88% 3.3 mph N5.3 kmh N 4.2 mph6.8 kmh 30.03 in1016.9 mb 0.00 in0.0 mm 0.00 in0.0 mm 0.00 in0.0 mm
11:55 AM 60.2°F15.7°C 56.6°F13.7°C 88% 3.3 mph NE5.3 kmh NE 4.2 mph6.8 kmh 30.03 in1016.9 mb 0.00 in0.0 mm 0.00 in0.0 mm 0.00 in0.0 mm
12:00 PM 60.3°F15.7°C 56.5°F13.6°C 87% 3.4 mph NE5.5 kmh NE 4.5 mph7.2 kmh 30.03 in1016.9 mb 0.00 in0.0 mm 0.00 in0.0 mm 0.00 in0.0 mm
12:05 PM 60.3°F15.7°C 56.1°F13.4°C 86% 3.1 mph NE5.0 kmh NE 4.5 mph7.2 kmh 30.03 in1016.9 mb 0.00 in0.0 mm 0.00 in0.0 mm 0.00 in0.0 mm
12:10 PM 60.5°F15.8°C 56.3°F13.5°C 86% 2.8 mph NE4.5 kmh NE 4.8 mph7.7 kmh 30.03 in1016.9 mb 0.00 in0.0 mm 0.00 in0.0 mm 0.00 in0.0 mm
12:15 PM 60.5°F15.8°C 56.0°F13.3°C 85% 2.1 mph NNE3.4 kmh NNE 4.8 mph7.7 kmh 30.03 in1016.9 mb 0.00 in0.0 mm 0.00 in0.0 mm 0.00 in0.0 mm
12:20 PM 60.7°F15.9°C 56.2°F13.4°C 85% 2.2 mph NNE3.5 kmh NNE 4.2 mph6.8 kmh 30.03 in1016.9 mb 0.00 in0.0 mm 0.00 in0.0 mm 0.00 in0.0 mm
12:25 PM 60.9°F16.1°C 56.0°F13.3°C 84% 2.9 mph NE4.7 kmh NE 4.2 mph6.8 kmh 30.03 in1016.9 mb 0.00 in0.0 mm 0.00 in0.0 mm 0.00 in0.0 mm
12:30 PM 61.1°F16.2°C 55.9°F13.3°C 83% 1.8 mph NE2.9 kmh NE 4.2 mph6.8 kmh 30.03 in1016.9 mb 0.00 in0.0 mm 0.00 in0.0 mm 0.00 in0.0 mm
12:35 PM 61.1°F16.2°C 55.9°F13.3°C 83% 1.3 mph N2.1 kmh N 2.7 mph4.3 kmh 30.03 in1016.9 mb 0.00 in0.0 mm 0.00 in0.0 mm 0.00 in0.0 mm
12:40 PM 61.3°F16.3°C 55.7°F13.2°C 82% 1.8 mph N2.9 kmh N 3.6 mph5.8 kmh 30.03 in1016.9 mb 0.00 in0.0 mm 0.00 in0.0 mm 0.00 in0.0 mm
12:45 PM 61.3°F16.3°C 55.7°F13.2°C 82% 2.7 mph NNE4.3 kmh NNE 5.1 mph8.2 kmh 30.03 in1016.9 mb 0.00 in0.0 mm 0.00 in0.0 mm 0.00 in0.0 mm
12:50 PM 61.3°F16.3°C 55.7°F13.2°C 82% 3.4 mph N5.5 kmh N 5.7 mph9.2 kmh 30.03 in1016.9 mb 0.00 in0.0 mm 0.00 in0.0 mm 0.00 in0.0 mm
12:55 PM 61.3°F16.3°C 55.4°F13.0°C 81% 3.1 mph N5.0 kmh N 5.7 mph9.2 kmh 30.03 in1016.9 mb 0.00 in0.0 mm 0.00 in0.0 mm 0.00 in0.0 mm
01:00 PM 61.1°F16.2°C 54.9°F12.7°C 80% 3.5 mph NNW5.6 kmh NNW 4.8 mph7.7 kmh 30.03 in1016.9 mb 0.00 in0.0 mm 0.00 in0.0 mm 0.00 in0.0 mm
01:05 PM 61.3°F16.3°C 55.0°F12.8°C 80% 3.8 mph N6.1 kmh N 4.2 mph6.8 kmh 30.03 in1016.9 mb 0.00 in0.0 mm 0.00 in0.0 mm 0.00 in0.0 mm
01:10 PM 61.3°F16.3°C 55.0°F12.8°C 80% 4.1 mph N6.6 kmh N 5.7 mph9.2 kmh 30.03 in1016.9 mb 0.00 in0.0 mm 0.00 in0.0 mm 0.00 in0.0 mm
01:15 PM 61.1°F16.2°C 54.5°F12.5°C 79% 4.3 mph N6.9 kmh N 6.2 mph10.0 kmh 30.03 in1016.9 mb 0.00 in0.0 mm 0.00 in0.0 mm 0.00 in0.0 mm
01:20 PM 60.9°F16.1°C 54.3°F12.4°C 79% 3.9 mph NNE6.3 kmh NNE 6.2 mph10.0 kmh 30.06 in1017.9 mb 0.00 in0.0 mm 0.00 in0.0 mm 0.00 in0.0 mm
01:25 PM 60.7°F15.9°C 53.8°F12.1°C 78% 3.1 mph N5.0 kmh N 5.4 mph8.7 kmh 30.06 in1017.9 mb 0.00 in0.0 mm 0.00 in0.0 mm 0.00 in0.0 mm
01:30 PM 60.7°F15.9°C 54.2°F12.3°C 79% 2.9 mph N4.7 kmh N 5.4 mph8.7 kmh 30.06 in1017.9 mb 0.00 in0.0 mm 0.00 in0.0 mm 0.00 in0.0 mm
01:35 PM 60.5°F15.8°C 54.0°F12.2°C 79% 3.3 mph N5.3 kmh N 5.1 mph8.2 kmh 30.06 in1017.9 mb 0.00 in0.0 mm 0.00 in0.0 mm 0.00 in0.0 mm
01:40 PM 60.5°F15.8°C 53.6°F12.0°C 78% 2.7 mph N4.3 kmh N 5.1 mph8.2 kmh 30.06 in1017.9 mb 0.00 in0.0 mm 0.00 in0.0 mm 0.00 in0.0 mm
01:45 PM 60.3°F15.7°C 53.5°F11.9°C 78% 2.7 mph N4.3 kmh N 4.8 mph7.7 kmh 30.06 in1017.9 mb 0.00 in0.0 mm 0.00 in0.0 mm 0.00 in0.0 mm
01:50 PM 60.3°F15.7°C 53.5°F11.9°C 78% 2.5 mph NNE4.0 kmh NNE 4.8 mph7.7 kmh 30.06 in1017.9 mb 0.00 in0.0 mm 0.00 in0.0 mm 0.00 in0.0 mm
01:55 PM 60.3°F15.7°C 53.1°F11.7°C 77% 2.0 mph N3.2 kmh N 4.5 mph7.2 kmh 30.06 in1017.9 mb 0.00 in0.0 mm 0.00 in0.0 mm 0.00 in0.0 mm
02:00 PM 60.3°F15.7°C 53.1°F11.7°C 77% 3.0 mph N4.8 kmh N 5.4 mph8.7 kmh 30.06 in1017.9 mb 0.00 in0.0 mm 0.00 in0.0 mm 0.00 in0.0 mm
02:05 PM 60.2°F15.7°C 52.9°F11.6°C 77% 3.6 mph N5.8 kmh N 5.4 mph8.7 kmh 30.06 in1017.9 mb 0.00 in0.0 mm 0.00 in0.0 mm 0.00 in0.0 mm
02:10 PM 60.2°F15.7°C 52.9°F11.6°C 77% 3.6 mph N5.8 kmh N 5.1 mph8.2 kmh 30.06 in1017.9 mb 0.00 in0.0 mm 0.00 in0.0 mm 0.00 in0.0 mm
02:15 PM 60.2°F15.7°C 52.9°F11.6°C 77% 3.3 mph N5.3 kmh N 5.1 mph8.2 kmh 30.06 in1017.9 mb 0.00 in0.0 mm 0.00 in0.0 mm 0.00 in0.0 mm
02:20 PM 60.2°F15.7°C 52.9°F11.6°C 77% 3.1 mph N5.0 kmh N 5.4 mph8.7 kmh 30.06 in1017.9 mb 0.00 in0.0 mm 0.00 in0.0 mm 0.00 in0.0 mm
02:25 PM 60.3°F15.7°C 53.1°F11.7°C 77% 2.7 mph N4.3 kmh N 5.4 mph8.7 kmh 30.06 in1017.9 mb 0.00 in0.0 mm 0.00 in0.0 mm 0.00 in0.0 mm
02:30 PM 60.5°F15.8°C 53.3°F11.8°C 77% 2.7 mph NNE4.3 kmh NNE 4.8 mph7.7 kmh 30.06 in1017.9 mb 0.00 in0.0 mm 0.00 in0.0 mm 0.00 in0.0 mm
02:35 PM 60.7°F15.9°C 53.1°F11.7°C 76% 2.9 mph N4.7 kmh N 4.8 mph7.7 kmh 30.06 in1017.9 mb 0.00 in0.0 mm 0.00 in0.0 mm 0.00 in0.0 mm
02:40 PM 60.9°F16.1°C 53.3°F11.8°C 76% 2.7 mph N4.3 kmh N 5.1 mph8.2 kmh 30.06 in1017.9 mb 0.00 in0.0 mm 0.00 in0.0 mm 0.00 in0.0 mm
02:45 PM 61.1°F16.2°C 53.1°F11.7°C 75% 2.9 mph NNE4.7 kmh NNE 5.1 mph8.2 kmh 30.06 in1017.9 mb 0.00 in0.0 mm 0.00 in0.0 mm 0.00 in0.0 mm
02:50 PM 61.1°F16.2°C 52.7°F11.5°C 74% 3.6 mph NE5.8 kmh NE 6.5 mph10.5 kmh 30.06 in1017.9 mb 0.00 in0.0 mm 0.00 in0.0 mm 0.00 in0.0 mm
02:55 PM 61.1°F16.2°C 53.1°F11.7°C 75% 3.8 mph ENE6.1 kmh ENE 6.5 mph10.5 kmh 30.06 in1017.9 mb 0.00 in0.0 mm 0.00 in0.0 mm 0.00 in0.0 mm
03:00 PM 60.9°F16.1°C 52.2°F11.2°C 73% 3.7 mph ENE6.0 kmh ENE 5.1 mph8.2 kmh 30.06 in1017.9 mb 0.00 in0.0 mm 0.00 in0.0 mm 0.00 in0.0 mm
03:05 PM 60.7°F15.9°C 52.0°F11.1°C 73% 4.9 mph NE7.9 kmh NE 7.7 mph12.4 kmh 30.06 in1017.9 mb 0.00 in0.0 mm 0.00 in0.0 mm 0.00 in0.0 mm
03:10 PM 60.5°F15.8°C 51.8°F11.0°C 73% 4.7 mph NE7.6 kmh NE 7.7 mph12.4 kmh 30.06 in1017.9 mb 0.00 in0.0 mm 0.00 in0.0 mm 0.00 in0.0 mm
03:15 PM 60.5°F15.8°C 51.8°F11.0°C 73% 3.3 mph ENE5.3 kmh ENE 5.7 mph9.2 kmh 30.06 in1017.9 mb 0.00 in0.0 mm 0.00 in0.0 mm 0.00 in0.0 mm
03:20 PM 60.5°F15.8°C 51.8°F11.0°C 73% 3.2 mph NE5.1 kmh NE 4.8 mph7.7 kmh 30.06 in1017.9 mb 0.00 in0.0 mm 0.00 in0.0 mm 0.00 in0.0 mm
03:25 PM 60.3°F15.7°C 51.7°F10.9°C 73% 4.2 mph NE6.8 kmh NE 6.2 mph10.0 kmh 30.06 in1017.9 mb 0.00 in0.0 mm 0.00 in0.0 mm 0.00 in0.0 mm
03:30 PM 60.2°F15.7°C 51.5°F10.8°C 73% 4.9 mph ENE7.9 kmh ENE 6.2 mph10.0 kmh 30.06 in1017.9 mb 0.00 in0.0 mm 0.00 in0.0 mm 0.00 in0.0 mm
03:35 PM 60.0°F15.6°C 51.3°F10.7°C 73% 4.6 mph ENE7.4 kmh ENE 6.2 mph10.0 kmh 30.06 in1017.9 mb 0.00 in0.0 mm 0.00 in0.0 mm 0.00 in0.0 mm
03:40 PM 60.0°F15.6°C 51.3°F10.7°C 73% 4.3 mph NE6.9 kmh NE 6.2 mph10.0 kmh 30.06 in1017.9 mb 0.00 in0.0 mm 0.00 in0.0 mm 0.00 in0.0 mm
03:45 PM 59.8°F15.4°C 51.1°F10.6°C 73% 3.9 mph NE6.3 kmh NE 5.7 mph9.2 kmh 30.06 in1017.9 mb 0.00 in0.0 mm 0.00 in0.0 mm 0.00 in0.0 mm
03:50 PM 59.8°F15.4°C 51.1°F10.6°C 73% 4.0 mph NE6.4 kmh NE 5.7 mph9.2 kmh 30.06 in1017.9 mb 0.00 in0.0 mm 0.00 in0.0 mm 0.00 in0.0 mm
03:55 PM 59.6°F15.3°C 51.3°F10.7°C 74% 3.7 mph NE6.0 kmh NE 5.7 mph9.2 kmh 30.06 in1017.9 mb 0.00 in0.0 mm 0.00 in0.0 mm 0.00 in0.0 mm
04:00 PM 59.6°F15.3°C 51.3°F10.7°C 74% 3.0 mph ENE4.8 kmh ENE 5.4 mph8.7 kmh 30.06 in1017.9 mb 0.00 in0.0 mm 0.00 in0.0 mm 0.00 in0.0 mm
04:05 PM 59.6°F15.3°C 51.3°F10.7°C 74% 2.9 mph ENE4.7 kmh ENE 4.2 mph6.8 kmh 30.06 in1017.9 mb 0.00 in0.0 mm 0.00 in0.0 mm 0.00 in0.0 mm
04:10 PM 59.5°F15.3°C 51.2°F10.7°C 74% 3.2 mph ENE5.1 kmh ENE 4.5 mph7.2 kmh 30.06 in1017.9 mb 0.00 in0.0 mm 0.00 in0.0 mm 0.00 in0.0 mm
04:15 PM 59.3°F15.2°C 51.0°F10.6°C 74% 3.3 mph ENE5.3 kmh ENE 4.8 mph7.7 kmh 30.06 in1017.9 mb 0.00 in0.0 mm 0.00 in0.0 mm 0.00 in0.0 mm
04:20 PM 59.1°F15.1°C 51.2°F10.7°C 75% 2.2 mph ENE3.5 kmh ENE 4.8 mph7.7 kmh 30.06 in1017.9 mb 0.00 in0.0 mm 0.00 in0.0 mm 0.00 in0.0 mm
04:25 PM 59.1°F15.1°C 51.2°F10.7°C 75% 1.9 mph NE3.1 kmh NE 3.6 mph5.8 kmh 30.06 in1017.9 mb 0.00 in0.0 mm 0.00 in0.0 mm 0.00 in0.0 mm
04:30 PM 58.9°F14.9°C 51.0°F10.6°C 75% 2.9 mph NNE4.7 kmh NNE 5.1 mph8.2 kmh 30.06 in1017.9 mb 0.00 in0.0 mm 0.00 in0.0 mm 0.00 in0.0 mm
04:35 PM 58.7°F14.8°C 50.8°F10.4°C 75% 2.3 mph NNE3.7 kmh NNE 5.1 mph8.2 kmh 30.09 in1019.0 mb 0.00 in0.0 mm 0.00 in0.0 mm 0.00 in0.0 mm
04:40 PM 58.7°F14.8°C 50.8°F10.4°C 75% 2.2 mph NNE3.5 kmh NNE 3.9 mph6.3 kmh 30.09 in1019.0 mb 0.00 in0.0 mm 0.00 in0.0 mm 0.00 in0.0 mm
04:45 PM 58.5°F14.7°C 51.0°F10.6°C 76% 2.0 mph NNE3.2 kmh NNE 3.9 mph6.3 kmh 30.09 in1019.0 mb 0.00 in0.0 mm 0.00 in0.0 mm 0.00 in0.0 mm
04:50 PM 58.4°F14.7°C 50.8°F10.4°C 76% 0.9 mph N1.4 kmh N 3.9 mph6.3 kmh 30.09 in1019.0 mb 0.00 in0.0 mm 0.00 in0.0 mm 0.00 in0.0 mm
04:55 PM 58.4°F14.7°C 50.8°F10.4°C 76% 0.7 mph N1.1 kmh N 3.9 mph6.3 kmh 30.09 in1019.0 mb 0.00 in0.0 mm 0.00 in0.0 mm 0.00 in0.0 mm
05:00 PM 58.2°F14.6°C 50.7°F10.4°C 76% 1.0 mph NNE1.6 kmh NNE 4.8 mph7.7 kmh 30.09 in1019.0 mb 0.00 in0.0 mm 0.00 in0.0 mm 0.00 in0.0 mm
05:05 PM 58.0°F14.4°C 50.8°F10.4°C 77% 1.4 mph NNE2.3 kmh NNE 4.8 mph7.7 kmh 30.09 in1019.0 mb 0.00 in0.0 mm 0.00 in0.0 mm 0.00 in0.0 mm
05:10 PM 57.8°F14.3°C 50.7°F10.4°C 77% 1.1 mph NNE1.8 kmh NNE 4.8 mph7.7 kmh 30.09 in1019.0 mb 0.00 in0.0 mm 0.00 in0.0 mm 0.00 in0.0 mm
05:15 PM 57.8°F14.3°C 50.7°F10.4°C 77% 1.3 mph ENE2.1 kmh ENE 2.7 mph4.3 kmh 30.09 in1019.0 mb 0.00 in0.0 mm 0.00 in0.0 mm 0.00 in0.0 mm
05:20 PM 57.7°F14.3°C 50.8°F10.4°C 78% 1.5 mph ENE2.4 kmh ENE 2.7 mph4.3 kmh 30.12 in1020.0 mb 0.00 in0.0 mm 0.00 in0.0 mm 0.00 in0.0 mm
05:25 PM 57.7°F14.3°C 50.8°F10.4°C 78% 1.7 mph ENE2.7 kmh ENE 3.3 mph5.3 kmh 30.12 in1020.0 mb 0.00 in0.0 mm 0.00 in0.0 mm 0.00 in0.0 mm
05:30 PM 57.5°F14.2°C 50.7°F10.4°C 78% 2.8 mph ENE4.5 kmh ENE 3.9 mph6.3 kmh 30.12 in1020.0 mb 0.00 in0.0 mm 0.00 in0.0 mm 0.00 in0.0 mm
05:35 PM 57.3°F14.1°C 50.5°F10.3°C 78% 2.0 mph ENE3.2 kmh ENE 3.9 mph6.3 kmh 30.12 in1020.0 mb 0.00 in0.0 mm 0.00 in0.0 mm 0.00 in0.0 mm
05:40 PM 57.3°F14.1°C 50.5°F10.3°C 78% 0.4 mph ENE0.6 kmh ENE 3.3 mph5.3 kmh 30.12 in1020.0 mb 0.00 in0.0 mm 0.00 in0.0 mm 0.00 in0.0 mm
05:45 PM 57.1°F13.9°C 50.3°F10.2°C 78% 0.1 mph NE0.2 kmh NE 1.8 mph2.9 kmh 30.12 in1020.0 mb 0.00 in0.0 mm 0.00 in0.0 mm 0.00 in0.0 mm
05:50 PM 57.1°F13.9°C 50.3°F10.2°C 78% 0.1 mph NE0.2 kmh NE 1.8 mph2.9 kmh 30.12 in1020.0 mb 0.00 in0.0 mm 0.00 in0.0 mm 0.00 in0.0 mm
05:55 PM 57.1°F13.9°C 50.3°F10.2°C 78% 0.1 mph N0.2 kmh N 2.1 mph3.4 kmh 30.12 in1020.0 mb 0.00 in0.0 mm 0.00 in0.0 mm 0.00 in0.0 mm
06:00 PM 56.9°F13.8°C 50.1°F10.1°C 78% 0.4 mph NNE0.6 kmh NNE 2.1 mph3.4 kmh 30.12 in1020.0 mb 0.00 in0.0 mm 0.00 in0.0 mm 0.00 in0.0 mm
06:05 PM 56.9°F13.8°C 50.1°F10.1°C 78% 0.2 mph NE0.3 kmh NE 1.5 mph2.4 kmh 30.12 in1020.0 mb 0.00 in0.0 mm 0.00 in0.0 mm 0.00 in0.0 mm
06:10 PM 56.8°F13.8°C 50.3°F10.2°C 79% 0.1 mph NE0.2 kmh NE 1.8 mph2.9 kmh 30.12 in1020.0 mb 0.00 in0.0 mm 0.00 in0.0 mm 0.00 in0.0 mm
06:15 PM 56.8°F13.8°C 50.3°F10.2°C 79% 0.6 mph NNE1.0 kmh NNE 2.1 mph3.4 kmh 30.12 in1020.0 mb 0.00 in0.0 mm 0.00 in0.0 mm 0.00 in0.0 mm
06:20 PM 56.8°F13.8°C 50.3°F10.2°C 79% 1.0 mph N1.6 kmh N 3.3 mph5.3 kmh 30.12 in1020.0 mb 0.00 in0.0 mm 0.00 in0.0 mm 0.00 in0.0 mm
06:25 PM 56.6°F13.7°C 50.5°F10.3°C 80% 0.7 mph N1.1 kmh N 3.3 mph5.3 kmh 30.12 in1020.0 mb 0.00 in0.0 mm 0.00 in0.0 mm 0.00 in0.0 mm
06:30 PM 56.6°F13.7°C 50.5°F10.3°C 80% 0.5 mph NE0.8 kmh NE 2.1 mph3.4 kmh 30.12 in1020.0 mb 0.00 in0.0 mm 0.00 in0.0 mm 0.00 in0.0 mm
06:35 PM 56.4°F13.6°C 50.3°F10.2°C 80% 0.5 mph NE0.8 kmh NE 2.1 mph3.4 kmh 30.12 in1020.0 mb 0.00 in0.0 mm 0.00 in0.0 mm 0.00 in0.0 mm
06:40 PM 56.4°F13.6°C 50.6°F10.3°C 81% 0.7 mph NE1.1 kmh NE 3.3 mph5.3 kmh 30.12 in1020.0 mb 0.00 in0.0 mm 0.00 in0.0 mm 0.00 in0.0 mm
06:45 PM 56.4°F13.6°C 50.6°F10.3°C 81% 0.5 mph NE0.8 kmh NE 3.3 mph5.3 kmh 30.12 in1020.0 mb 0.00 in0.0 mm 0.00 in0.0 mm 0.00 in0.0 mm
06:50 PM 56.4°F13.6°C 50.6°F10.3°C 81% 0.7 mph NE1.1 kmh NE 3.9 mph6.3 kmh 30.12 in1020.0 mb 0.00 in0.0 mm 0.00 in0.0 mm 0.00 in0.0 mm
06:55 PM 56.2°F13.4°C 50.8°F10.4°C 82% 1.3 mph NNE2.1 kmh NNE 3.9 mph6.3 kmh 30.12 in1020.0 mb 0.00 in0.0 mm 0.00 in0.0 mm 0.00 in0.0 mm
07:00 PM 56.2°F13.4°C 50.8°F10.4°C 82% 0.9 mph NNE1.4 kmh NNE 3.0 mph4.8 kmh 30.12 in1020.0 mb 0.00 in0.0 mm 0.00 in0.0 mm 0.00 in0.0 mm
07:05 PM 56.2°F13.4°C 50.8°F10.4°C 82% 0.6 mph NE1.0 kmh NE 1.8 mph2.9 kmh 30.15 in1021.0 mb 0.00 in0.0 mm 0.00 in0.0 mm 0.00 in0.0 mm
07:10 PM 56.0°F13.3°C 50.6°F10.3°C 82% 1.5 mph NE2.4 kmh NE 4.5 mph7.2 kmh 30.15 in1021.0 mb 0.00 in0.0 mm 0.00 in0.0 mm 0.00 in0.0 mm
07:15 PM 56.0°F13.3°C 50.3°F10.2°C 81% 1.7 mph NE2.7 kmh NE 4.5 mph7.2 kmh 30.15 in1021.0 mb 0.00 in0.0 mm 0.00 in0.0 mm 0.00 in0.0 mm
07:20 PM 56.0°F13.3°C 50.3°F10.2°C 81% 1.5 mph NNE2.4 kmh NNE 4.2 mph6.8 kmh 30.15 in1021.0 mb 0.00 in0.0 mm 0.00 in0.0 mm 0.00 in0.0 mm
07:25 PM 56.0°F13.3°C 50.6°F10.3°C 82% 1.6 mph N2.6 kmh N 4.2 mph6.8 kmh 30.15 in1021.0 mb 0.00 in0.0 mm 0.00 in0.0 mm 0.00 in0.0 mm
07:30 PM 56.0°F13.3°C 50.6°F10.3°C 82% 2.8 mph NNE4.5 kmh NNE 5.1 mph8.2 kmh 30.15 in1021.0 mb 0.00 in0.0 mm 0.00 in0.0 mm 0.00 in0.0 mm
07:35 PM 56.0°F13.3°C 50.6°F10.3°C 82% 2.8 mph NE4.5 kmh NE 5.1 mph8.2 kmh 30.15 in1021.0 mb 0.00 in0.0 mm 0.00 in0.0 mm 0.00 in0.0 mm
07:40 PM 56.0°F13.3°C 50.6°F10.3°C 82% 2.7 mph NE4.3 kmh NE 4.5 mph7.2 kmh 30.15 in1021.0 mb 0.00 in0.0 mm 0.00 in0.0 mm 0.00 in0.0 mm
07:45 PM 55.8°F13.2°C 50.8°F10.4°C 83% 3.9 mph NNE6.3 kmh NNE 4.8 mph7.7 kmh 30.15 in1021.0 mb 0.00 in0.0 mm 0.00 in0.0 mm 0.00 in0.0 mm
07:50 PM 55.8°F13.2°C 50.4°F10.2°C 82% 4.1 mph NNE6.6 kmh NNE 5.4 mph8.7 kmh 30.15 in1021.0 mb 0.00 in0.0 mm 0.00 in0.0 mm 0.00 in0.0 mm
07:55 PM 55.8°F13.2°C 50.8°F10.4°C 83% 3.8 mph NNE6.1 kmh NNE 5.4 mph8.7 kmh 30.15 in1021.0 mb 0.00 in0.0 mm 0.00 in0.0 mm 0.00 in0.0 mm
08:00 PM 55.8°F13.2°C 50.8°F10.4°C 83% 3.3 mph NNE5.3 kmh NNE 5.1 mph8.2 kmh 30.15 in1021.0 mb 0.00 in0.0 mm 0.00 in0.0 mm 0.00 in0.0 mm
08:05 PM 55.8°F13.2°C 50.8°F10.4°C 83% 2.9 mph NE4.7 kmh NE 3.9 mph6.3 kmh 30.15 in1021.0 mb 0.00 in0.0 mm 0.00 in0.0 mm 0.00 in0.0 mm
08:10 PM 55.8°F13.2°C 50.8°F10.4°C 83% 3.3 mph NE5.3 kmh NE 5.1 mph8.2 kmh 30.15 in1021.0 mb 0.00 in0.0 mm 0.00 in0.0 mm 0.00 in0.0 mm
08:15 PM 55.8°F13.2°C 50.8°F10.4°C 83% 3.8 mph NNE6.1 kmh NNE 6.5 mph10.5 kmh 30.15 in1021.0 mb 0.00 in0.0 mm 0.00 in0.0 mm 0.00 in0.0 mm
08:20 PM 55.7°F13.2°C 50.6°F10.3°C 83% 3.8 mph NE6.1 kmh NE 6.5 mph10.5 kmh 30.15 in1021.0 mb 0.00 in0.0 mm 0.00 in0.0 mm 0.00 in0.0 mm
08:25 PM 55.7°F13.2°C 50.6°F10.3°C 83% 2.6 mph NE4.2 kmh NE 5.1 mph8.2 kmh 30.15 in1021.0 mb 0.00 in0.0 mm 0.00 in0.0 mm 0.00 in0.0 mm
08:30 PM 55.5°F13.1°C 50.4°F10.2°C 83% 2.9 mph NE4.7 kmh NE 5.4 mph8.7 kmh 30.15 in1021.0 mb 0.00 in0.0 mm 0.00 in0.0 mm 0.00 in0.0 mm
08:35 PM 55.5°F13.1°C 50.4°F10.2°C 83% 3.3 mph NE5.3 kmh NE 5.4 mph8.7 kmh 30.18 in1022.0 mb 0.00 in0.0 mm 0.00 in0.0 mm 0.00 in0.0 mm
08:40 PM 55.5°F13.1°C 50.1°F10.1°C 82% 3.1 mph NE5.0 kmh NE 5.1 mph8.2 kmh 30.18 in1022.0 mb 0.00 in0.0 mm 0.00 in0.0 mm 0.00 in0.0 mm
08:45 PM 55.5°F13.1°C 50.1°F10.1°C 82% 4.2 mph NNE6.8 kmh NNE 6.5 mph10.5 kmh 30.18 in1022.0 mb 0.00 in0.0 mm 0.00 in0.0 mm 0.00 in0.0 mm
08:50 PM 55.3°F12.9°C 49.9°F9.9°C 82% 4.2 mph NNE6.8 kmh NNE 6.5 mph10.5 kmh 30.18 in1022.0 mb 0.00 in0.0 mm 0.00 in0.0 mm 0.00 in0.0 mm
08:55 PM 55.3°F12.9°C 49.9°F9.9°C 82% 4.2 mph NE6.8 kmh NE 6.5 mph10.5 kmh 30.18 in1022.0 mb 0.00 in0.0 mm 0.00 in0.0 mm 0.00 in0.0 mm
09:00 PM 55.1°F12.8°C 49.4°F9.7°C 81% 4.1 mph NE6.6 kmh NE 7.1 mph11.4 kmh 30.18 in1022.0 mb 0.00 in0.0 mm 0.00 in0.0 mm 0.00 in0.0 mm
09:05 PM 55.1°F12.8°C 49.4°F9.7°C 81% 4.5 mph NE7.2 kmh NE 7.7 mph12.4 kmh 30.18 in1022.0 mb 0.00 in0.0 mm 0.00 in0.0 mm 0.00 in0.0 mm
09:10 PM 55.1°F12.8°C 49.4°F9.7°C 81% 4.3 mph NE6.9 kmh NE 7.7 mph12.4 kmh 30.18 in1022.0 mb 0.00 in0.0 mm 0.00 in0.0 mm 0.00 in0.0 mm
09:15 PM 55.1°F12.8°C 49.4°F9.7°C 81% 4.3 mph NE6.9 kmh NE 7.4 mph11.9 kmh 30.18 in1022.0 mb 0.00 in0.0 mm 0.00 in0.0 mm 0.00 in0.0 mm
09:20 PM 55.0°F12.8°C 49.2°F9.6°C 81% 5.6 mph NE9.0 kmh NE 10.4 mph16.7 kmh 30.18 in1022.0 mb 0.00 in0.0 mm 0.00 in0.0 mm 0.00 in0.0 mm
09:25 PM 55.0°F12.8°C 49.2°F9.6°C 81% 7.2 mph NE11.6 kmh NE 10.4 mph16.7 kmh 30.18 in1022.0 mb 0.00 in0.0 mm 0.00 in0.0 mm 0.00 in0.0 mm
09:30 PM 55.0°F12.8°C 49.2°F9.6°C 81% 6.4 mph NE10.3 kmh NE 10.4 mph16.7 kmh 30.18 in1022.0 mb 0.00 in0.0 mm 0.00 in0.0 mm 0.00 in0.0 mm
09:35 PM 54.8°F12.7°C 49.1°F9.5°C 81% 6.2 mph NE10.0 kmh NE 13.1 mph21.1 kmh 30.18 in1022.0 mb 0.00 in0.0 mm 0.00 in0.0 mm 0.00 in0.0 mm
09:40 PM 54.8°F12.7°C 49.1°F9.5°C 81% 7.1 mph NE11.4 kmh NE 13.4 mph21.6 kmh 30.18 in1022.0 mb 0.00 in0.0 mm 0.00 in0.0 mm 0.00 in0.0 mm
09:45 PM 54.8°F12.7°C 48.7°F9.3°C 80% 7.5 mph NE12.1 kmh NE 13.4 mph21.6 kmh 30.18 in1022.0 mb 0.00 in0.0 mm 0.00 in0.0 mm 0.00 in0.0 mm
09:50 PM 54.8°F12.7°C 48.7°F9.3°C 80% 6.8 mph NE10.9 kmh NE 9.8 mph15.8 kmh 30.18 in1022.0 mb 0.00 in0.0 mm 0.00 in0.0 mm 0.00 in0.0 mm
09:55 PM 54.6°F12.6°C 48.5°F9.2°C 80% 7.0 mph NE11.3 kmh NE 10.1 mph16.3 kmh 30.18 in1022.0 mb 0.00 in0.0 mm 0.00 in0.0 mm 0.00 in0.0 mm
10:00 PM 54.6°F12.6°C 48.5°F9.2°C 80% 6.9 mph NE11.1 kmh NE 10.1 mph16.3 kmh 30.18 in1022.0 mb 0.00 in0.0 mm 0.00 in0.0 mm 0.00 in0.0 mm
10:05 PM 54.4°F12.4°C 48.4°F9.1°C 80% 5.7 mph ENE9.2 kmh ENE 8.0 mph12.9 kmh 30.21 in1023.0 mb 0.00 in0.0 mm 0.00 in0.0 mm 0.00 in0.0 mm
10:10 PM 54.4°F12.4°C 48.4°F9.1°C 80% 4.3 mph NE6.9 kmh NE 7.4 mph11.9 kmh 30.21 in1023.0 mb 0.00 in0.0 mm 0.00 in0.0 mm 0.00 in0.0 mm
10:15 PM 54.2°F12.3°C 48.2°F9.0°C 80% 5.3 mph NE8.5 kmh NE 9.5 mph15.3 kmh 30.21 in1023.0 mb 0.00 in0.0 mm 0.00 in0.0 mm 0.00 in0.0 mm
10:20 PM 54.2°F12.3°C 48.2°F9.0°C 80% 7.0 mph NE11.3 kmh NE 9.5 mph15.3 kmh 30.21 in1023.0 mb 0.00 in0.0 mm 0.00 in0.0 mm 0.00 in0.0 mm
10:25 PM 54.0°F12.2°C 48.3°F9.1°C 81% 5.9 mph NE9.5 kmh NE 8.6 mph13.8 kmh 30.21 in1023.0 mb 0.00 in0.0 mm 0.00 in0.0 mm 0.00 in0.0 mm
10:30 PM 54.0°F12.2°C 48.3°F9.1°C 81% 5.4 mph NE8.7 kmh NE 8.6 mph13.8 kmh 30.21 in1023.0 mb 0.00 in0.0 mm 0.00 in0.0 mm 0.00 in0.0 mm
10:35 PM 53.9°F12.2°C 48.2°F9.0°C 81% 6.2 mph NE10.0 kmh NE 11.6 mph18.7 kmh 30.21 in1023.0 mb 0.00 in0.0 mm 0.00 in0.0 mm 0.00 in0.0 mm
10:40 PM 53.7°F12.1°C 48.0°F8.9°C 81% 7.0 mph NE11.3 kmh NE 13.1 mph21.1 kmh 30.21 in1023.0 mb 0.00 in0.0 mm 0.00 in0.0 mm 0.00 in0.0 mm
10:45 PM 53.7°F12.1°C 48.0°F8.9°C 81% 6.6 mph ENE10.6 kmh ENE 13.1 mph21.1 kmh 30.21 in1023.0 mb 0.00 in0.0 mm 0.00 in0.0 mm 0.00 in0.0 mm
10:50 PM 53.3°F11.8°C 47.6°F8.7°C 81% 6.5 mph ENE10.5 kmh ENE 10.7 mph17.2 kmh 30.21 in1023.0 mb 0.00 in0.0 mm 0.00 in0.0 mm 0.00 in0.0 mm
10:55 PM 53.3°F11.8°C 47.6°F8.7°C 81% 6.9 mph ENE11.1 kmh ENE 10.7 mph17.2 kmh 30.21 in1023.0 mb 0.00 in0.0 mm 0.00 in0.0 mm 0.00 in0.0 mm
11:00 PM 53.2°F11.8°C 47.5°F8.6°C 81% 7.3 mph NE11.7 kmh NE 8.3 mph13.4 kmh 30.21 in1023.0 mb 0.00 in0.0 mm 0.00 in0.0 mm 0.00 in0.0 mm
11:05 PM 52.8°F11.6°C 47.1°F8.4°C 81% 6.3 mph NE10.1 kmh NE 8.3 mph13.4 kmh 30.21 in1023.0 mb 0.00 in0.0 mm 0.00 in0.0 mm 0.00 in0.0 mm
11:10 PM 52.6°F11.4°C 46.9°F8.3°C 81% 5.5 mph NE8.9 kmh NE 7.4 mph11.9 kmh 30.21 in1023.0 mb 0.00 in0.0 mm 0.00 in0.0 mm 0.00 in0.0 mm
11:15 PM 52.4°F11.3°C 46.8°F8.2°C 81% 5.7 mph NE9.2 kmh NE 8.6 mph13.8 kmh 30.21 in1023.0 mb 0.00 in0.0 mm 0.00 in0.0 mm 0.00 in0.0 mm
11:20 PM 52.3°F11.3°C 46.9°F8.3°C 82% 6.1 mph NE9.8 kmh NE 8.6 mph13.8 kmh 30.21 in1023.0 mb 0.00 in0.0 mm 0.00 in0.0 mm 0.00 in0.0 mm
11:25 PM 52.1°F11.2°C 46.7°F8.2°C 82% 6.0 mph ENE9.7 kmh ENE 8.6 mph13.8 kmh 30.21 in1023.0 mb 0.00 in0.0 mm 0.00 in0.0 mm 0.00 in0.0 mm
11:30 PM 51.9°F11.1°C 46.6°F8.1°C 82% 5.3 mph ENE8.5 kmh ENE 8.0 mph12.9 kmh 30.21 in1023.0 mb 0.00 in0.0 mm 0.00 in0.0 mm 0.00 in0.0 mm
11:35 PM 51.9°F11.1°C 46.6°F8.1°C 82% 4.6 mph ENE7.4 kmh ENE 7.4 mph11.9 kmh 30.21 in1023.0 mb 0.00 in0.0 mm 0.00 in0.0 mm 0.00 in0.0 mm
11:40 PM 51.7°F10.9°C 46.4°F8.0°C 82% 4.7 mph ENE7.6 kmh ENE 6.5 mph10.5 kmh 30.21 in1023.0 mb 0.00 in0.0 mm 0.00 in0.0 mm 0.00 in0.0 mm
11:45 PM 51.7°F10.9°C 46.4°F8.0°C 82% 4.9 mph ENE7.9 kmh ENE 6.5 mph10.5 kmh 30.21 in1023.0 mb 0.00 in0.0 mm 0.00 in0.0 mm 0.00 in0.0 mm
11:50 PM 51.5°F10.8°C 46.5°F8.1°C 83% 5.7 mph ENE9.2 kmh ENE 8.6 mph13.8 kmh 30.24 in1024.0 mb 0.00 in0.0 mm 0.00 in0.0 mm 0.00 in0.0 mm
11:55 PM 51.5°F10.8°C 46.5°F8.1°C 83% 5.5 mph ENE8.9 kmh ENE 8.6 mph13.8 kmh 30.24 in1024.0 mb 0.00 in0.0 mm 0.00 in0.0 mm 0.00 in0.0 mm